createdAt,value
2019-01-19T00:00:22.989Z,-1.61
2019-01-19T00:01:23.158Z,-1.53
2019-01-19T00:02:23.331Z,-1.56
2019-01-19T00:03:23.495Z,-1.65
2019-01-19T00:04:23.667Z,-1.66
2019-01-19T00:05:23.856Z,-1.72
2019-01-19T00:06:24.028Z,-1.72
2019-01-19T00:07:24.193Z,-1.66
2019-01-19T00:08:24.360Z,-1.79
2019-01-19T00:09:24.530Z,-1.69
2019-01-19T00:10:24.695Z,-1.74
2019-01-19T00:11:24.866Z,-1.74
2019-01-19T00:12:25.034Z,-1.72
2019-01-19T00:13:25.199Z,-1.80
2019-01-19T00:14:25.364Z,-1.76
2019-01-19T00:15:25.539Z,-1.80
2019-01-19T00:16:25.703Z,-1.82
2019-01-19T00:17:25.867Z,-1.79
2019-01-19T00:18:26.035Z,-1.83
2019-01-19T00:19:26.201Z,-1.86
2019-01-19T00:20:26.370Z,-1.87
2019-01-19T00:21:26.549Z,-1.95
2019-01-19T00:22:26.717Z,-1.84
2019-01-19T00:23:26.895Z,-1.94
2019-01-19T00:24:27.048Z,-1.79
2019-01-19T00:25:27.228Z,-1.94
2019-01-19T00:26:27.387Z,-1.82
2019-01-19T00:27:27.542Z,-1.89
2019-01-19T00:28:27.710Z,-1.95
2019-01-19T00:29:27.881Z,-1.92
2019-01-19T00:30:28.051Z,-1.89
2019-01-19T00:31:28.214Z,-1.90
2019-01-19T00:33:28.549Z,-1.90
2019-01-19T00:34:34.039Z,-1.90
2019-01-19T00:35:28.882Z,-1.83
2019-01-19T00:36:29.098Z,-1.86
2019-01-19T00:37:29.215Z,-1.86
2019-01-19T00:38:29.385Z,-1.86
2019-01-19T00:39:29.553Z,-1.80
2019-01-19T00:40:29.720Z,-1.84
2019-01-19T00:41:29.888Z,-1.82
2019-01-19T00:42:30.053Z,-1.77
2019-01-19T00:43:30.211Z,-1.76
2019-01-19T00:44:30.385Z,-1.79
2019-01-19T00:45:30.559Z,-1.84
2019-01-19T00:46:30.729Z,-1.92
2019-01-19T00:47:30.906Z,-1.94
2019-01-19T00:48:31.076Z,-1.94
2019-01-19T00:49:31.248Z,-1.92
2019-01-19T00:50:31.415Z,-2.02
2019-01-19T00:51:31.583Z,-1.89
2019-01-19T00:52:31.749Z,-2.02
2019-01-19T00:53:31.931Z,-2.01
2019-01-19T00:54:32.079Z,-2.12
2019-01-19T00:55:32.246Z,-2.05
2019-01-19T00:56:32.417Z,-2.01
2019-01-19T00:57:32.582Z,-2.04
2019-01-19T00:58:32.751Z,-1.98
2019-01-19T00:59:32.921Z,-2.08
2019-01-19T01:00:33.085Z,-2.04
2019-01-19T01:01:33.255Z,-2.10
2019-01-19T01:02:33.424Z,-2.16
2019-01-19T01:03:33.592Z,-2.21
2019-01-19T01:04:33.760Z,-2.30
2019-01-19T01:05:33.931Z,-2.21
2019-01-19T01:06:34.095Z,-2.34
2019-01-19T01:07:34.271Z,-2.25
2019-01-19T01:08:34.427Z,-2.25
2019-01-19T01:09:34.592Z,-2.18
2019-01-19T01:10:34.792Z,-2.21
2019-01-19T01:11:34.934Z,-2.23
2019-01-19T01:12:35.087Z,-2.18
2019-01-19T01:13:35.265Z,-2.07
2019-01-19T01:14:35.432Z,-1.94
2019-01-19T01:15:35.600Z,-1.97
2019-01-19T01:16:35.773Z,-2.00
2019-01-19T01:17:35.932Z,-1.84
2019-01-19T01:18:36.096Z,-2.00
2019-01-19T01:19:36.262Z,-1.80
2019-01-19T01:20:36.433Z,-1.87
2019-01-19T01:21:36.599Z,-1.83
2019-01-19T01:22:36.772Z,-1.84
2019-01-19T01:23:36.944Z,-1.97
2019-01-19T01:24:37.105Z,-1.98
2019-01-19T01:25:37.266Z,-2.04
2019-01-19T01:26:37.443Z,-1.98
2019-01-19T01:27:37.603Z,-1.97
2019-01-19T01:28:37.762Z,-1.98
2019-01-19T01:29:37.918Z,-2.00
2019-01-19T01:30:38.097Z,-1.95
2019-01-19T01:31:38.252Z,-1.89
2019-01-19T01:32:38.420Z,-1.87
2019-01-19T01:33:38.589Z,-1.89
2019-01-19T01:34:38.763Z,-1.84
2019-01-19T01:35:38.919Z,-1.83
2019-01-19T01:36:39.099Z,-1.86
2019-01-19T01:37:39.231Z,-1.86
2019-01-19T01:38:39.408Z,-1.80
2019-01-19T01:39:39.585Z,-1.92
2019-01-19T01:40:39.742Z,-1.87
2019-01-19T01:41:39.909Z,-1.94
2019-01-19T01:42:40.079Z,-1.97
2019-01-19T01:43:40.264Z,-1.89
2019-01-19T01:44:40.417Z,-1.97
2019-01-19T01:45:40.581Z,-1.98
2019-01-19T01:46:40.759Z,-1.94
2019-01-19T01:47:40.927Z,-2.00
2019-01-19T01:48:41.097Z,-2.01
2019-01-19T01:49:41.263Z,-2.01
2019-01-19T01:50:41.439Z,-2.04
2019-01-19T01:51:41.596Z,-1.95
2019-01-19T01:52:41.763Z,-2.01
2019-01-19T01:53:41.925Z,-1.98
2019-01-19T01:54:42.100Z,-2.01
2019-01-19T01:55:42.268Z,-2.01
2019-01-19T01:56:42.435Z,-1.98
2019-01-19T01:57:42.609Z,-1.97
2019-01-19T01:58:42.769Z,-2.05
2019-01-19T01:59:42.930Z,-1.97
2019-01-19T02:00:43.104Z,-1.98
2019-01-19T02:01:43.271Z,-2.07
2019-01-19T02:02:43.444Z,-2.05
2019-01-19T02:03:43.609Z,-2.08
2019-01-19T02:04:43.782Z,-2.07
2019-01-19T02:05:43.944Z,-2.15
2019-01-19T02:06:44.115Z,-2.08
2019-01-19T02:07:44.281Z,-2.19
2019-01-19T02:08:44.452Z,-2.15
2019-01-19T02:09:44.622Z,-2.04
2019-01-19T02:10:44.789Z,-2.15
2019-01-19T02:11:44.968Z,-2.16
2019-01-19T02:12:45.118Z,-2.12
2019-01-19T02:13:45.287Z,-2.10
2019-01-19T02:14:45.469Z,-2.10
2019-01-19T02:15:45.621Z,-2.10
2019-01-19T02:16:45.788Z,-2.12
2019-01-19T02:17:45.948Z,-2.08
2019-01-19T02:18:46.118Z,-2.15
2019-01-19T02:19:46.280Z,-2.32
2019-01-19T02:20:46.464Z,-2.37
2019-01-19T02:21:46.614Z,-2.28
2019-01-19T02:22:46.779Z,-2.32
2019-01-19T02:23:46.952Z,-2.40
2019-01-19T02:24:47.108Z,-2.37
2019-01-19T02:25:47.284Z,-2.37
2019-01-19T02:26:47.448Z,-2.47
2019-01-19T02:27:47.660Z,-2.48
2019-01-19T02:28:47.784Z,-2.44
2019-01-19T02:29:47.952Z,-2.44
2019-01-19T02:30:48.122Z,-2.41
2019-01-19T02:31:48.280Z,-2.48
2019-01-19T02:32:48.453Z,-2.50
2019-01-19T02:33:48.621Z,-2.56
2019-01-19T02:34:48.795Z,-2.60
2019-01-19T02:35:48.957Z,-2.62
2019-01-19T02:36:49.130Z,-2.63
2019-01-19T02:37:49.279Z,-2.69
2019-01-19T02:38:49.453Z,-2.55
2019-01-19T02:39:49.639Z,-2.50
2019-01-19T02:40:49.788Z,-2.48
2019-01-19T02:41:49.958Z,-2.50
2019-01-19T02:42:50.116Z,-2.35
2019-01-19T02:43:50.281Z,-2.23
2019-01-19T02:44:50.452Z,-2.34
2019-01-19T02:45:50.616Z,-2.22
2019-01-19T02:46:50.783Z,-2.16
2019-01-19T02:47:50.987Z,-2.16
2019-01-19T02:48:51.189Z,-2.19
2019-01-19T02:49:51.294Z,-2.18
2019-01-19T02:50:51.456Z,-2.12
2019-01-19T02:51:51.628Z,-2.08
2019-01-19T02:52:51.793Z,-2.07
2019-01-19T02:53:51.972Z,-2.15
2019-01-19T02:54:52.133Z,-2.10
2019-01-19T02:55:52.300Z,-2.16
2019-01-19T02:56:52.469Z,-2.16
2019-01-19T02:57:52.648Z,-2.16
2019-01-19T02:58:52.803Z,-2.19
2019-01-19T02:59:52.966Z,-2.19
2019-01-19T03:00:53.146Z,-2.10
2019-01-19T03:01:53.306Z,-2.12
2019-01-19T03:02:53.477Z,-2.30
2019-01-19T03:03:53.653Z,-2.48
2019-01-19T03:04:53.823Z,-2.69
2019-01-19T03:05:56.220Z,-2.65
2019-01-19T03:06:54.154Z,-2.60
2019-01-19T03:07:54.312Z,-2.65
2019-01-19T03:08:54.485Z,-2.71
2019-01-19T03:09:54.661Z,-2.89
2019-01-19T03:10:54.823Z,-2.91
2019-01-19T03:11:54.992Z,-2.89
2019-01-19T03:12:55.158Z,-3.02
2019-01-19T03:13:55.327Z,-2.92
2019-01-19T03:14:55.502Z,-2.94
2019-01-19T03:15:55.659Z,-2.81
2019-01-19T03:16:55.826Z,-2.80
2019-01-19T03:17:55.998Z,-2.80
2019-01-19T03:18:56.166Z,-2.77
2019-01-19T03:19:56.339Z,-2.76
2019-01-19T03:20:56.504Z,-2.91
2019-01-19T03:21:56.665Z,-2.88
2019-01-19T03:22:56.836Z,-2.92
2019-01-19T03:23:57.002Z,-2.94
2019-01-19T03:24:57.169Z,-3.06
2019-01-19T03:25:57.344Z,-2.98
2019-01-19T03:26:57.502Z,-2.91
2019-01-19T03:28:57.849Z,-2.83
2019-01-19T03:29:58.007Z,-2.83
2019-01-19T03:30:58.197Z,-2.78
2019-01-19T03:31:58.419Z,-2.78
2019-01-19T03:32:58.584Z,-2.73
2019-01-19T03:33:58.742Z,-2.76
2019-01-19T03:34:58.904Z,-2.92
2019-01-19T03:36:04.290Z,-2.89
2019-01-19T03:36:59.237Z,-2.74
2019-01-19T03:37:59.403Z,-2.81
2019-01-19T03:38:59.574Z,-2.78
2019-01-19T03:39:59.740Z,-2.74
2019-01-19T03:40:59.906Z,-2.71
2019-01-19T03:42:00.079Z,-2.66
2019-01-19T03:43:00.260Z,-2.73
2019-01-19T03:44:00.410Z,-2.69
2019-01-19T03:45:00.576Z,-2.69
2019-01-19T03:46:00.745Z,-2.62
2019-01-19T03:47:00.901Z,-2.62
2019-01-19T03:48:01.079Z,-2.60
2019-01-19T03:49:01.246Z,-2.63
2019-01-19T03:50:01.445Z,-2.58
2019-01-19T03:51:01.579Z,-2.60
2019-01-19T03:52:01.742Z,-2.53
2019-01-19T03:53:01.918Z,-2.58
2019-01-19T03:54:02.090Z,-2.53
2019-01-19T03:55:02.252Z,-2.56
2019-01-19T03:56:02.425Z,-2.44
2019-01-19T03:57:02.594Z,-2.44
2019-01-19T03:58:02.751Z,-2.53
2019-01-19T03:59:02.917Z,-2.44
2019-01-19T04:00:03.100Z,-2.45
2019-01-19T04:01:03.263Z,-2.44
2019-01-19T04:02:03.427Z,-2.35
2019-01-19T04:03:03.595Z,-2.35
2019-01-19T04:04:03.778Z,-2.32
2019-01-19T04:05:03.925Z,-2.38
2019-01-19T04:06:04.092Z,-2.30
2019-01-19T04:07:04.270Z,-2.34
2019-01-19T04:08:04.428Z,-2.44
2019-01-19T04:09:04.595Z,-2.55
2019-01-19T04:10:04.785Z,-2.59
2019-01-19T04:11:04.932Z,-2.70
2019-01-19T04:12:05.096Z,-2.92
2019-01-19T04:13:05.264Z,-3.02
2019-01-19T04:14:05.433Z,-3.10
2019-01-19T04:15:05.594Z,-3.04
2019-01-19T04:16:05.781Z,-2.98
2019-01-19T04:17:05.919Z,-3.06
2019-01-19T04:18:06.089Z,-2.98
2019-01-19T04:19:07.139Z,-2.92
2019-01-19T04:20:06.415Z,-2.78
2019-01-19T04:21:06.576Z,-2.81
2019-01-19T04:22:06.753Z,-2.74
2019-01-19T04:23:06.915Z,-2.76
2019-01-19T04:24:07.082Z,-2.74
2019-01-19T04:25:07.245Z,-2.77
2019-01-19T04:26:07.416Z,-2.74
2019-01-19T04:27:07.586Z,-2.77
2019-01-19T04:28:07.746Z,-2.74
2019-01-19T04:29:07.917Z,-2.69
2019-01-19T04:30:08.084Z,-2.73
2019-01-19T04:31:08.258Z,-2.78
2019-01-19T04:32:08.415Z,-2.91
2019-01-19T04:33:08.598Z,-3.01
2019-01-19T04:34:08.752Z,-3.30
2019-01-19T04:35:08.920Z,-3.16
2019-01-19T04:36:09.070Z,-3.28
2019-01-19T04:37:09.257Z,-3.22
2019-01-19T04:38:09.401Z,-3.23
2019-01-19T04:39:09.576Z,-3.17
2019-01-19T04:40:09.747Z,-3.09
2019-01-19T04:41:09.916Z,-3.06
2019-01-19T04:42:10.082Z,-3.10
2019-01-19T04:43:10.252Z,-3.06
2019-01-19T04:44:10.411Z,-3.07
2019-01-19T04:45:10.614Z,-2.94
2019-01-19T04:46:10.749Z,-2.94
2019-01-19T04:47:10.914Z,-3.02
2019-01-19T04:48:11.088Z,-2.89
2019-01-19T04:49:11.261Z,-2.97
2019-01-19T04:50:11.416Z,-2.97
2019-01-19T04:51:11.588Z,-2.86
2019-01-19T04:52:11.753Z,-2.92
2019-01-19T04:53:11.926Z,-2.78
2019-01-19T04:54:12.092Z,-2.78
2019-01-19T04:55:12.261Z,-2.81
2019-01-19T04:56:12.431Z,-2.76
2019-01-19T04:57:12.592Z,-2.78
2019-01-19T04:58:12.758Z,-2.77
2019-01-19T04:59:12.934Z,-2.76
2019-01-19T05:00:13.106Z,-2.74
2019-01-19T05:01:13.271Z,-2.77
2019-01-19T05:02:13.442Z,-2.80
2019-01-19T05:03:13.611Z,-2.88
2019-01-19T05:04:13.774Z,-2.81
2019-01-19T05:05:13.942Z,-2.77
2019-01-19T05:06:14.106Z,-2.71
2019-01-19T05:07:14.266Z,-2.71
2019-01-19T05:08:14.439Z,-2.83
2019-01-19T05:09:14.605Z,-2.76
2019-01-19T05:10:14.772Z,-2.78
2019-01-19T05:11:14.938Z,-2.95
2019-01-19T05:12:15.109Z,-2.95
2019-01-19T05:13:15.276Z,-2.92
2019-01-19T05:14:15.448Z,-3.02
2019-01-19T05:15:15.616Z,-3.15
2019-01-19T05:16:15.782Z,-3.19
2019-01-19T05:17:15.952Z,-3.15
2019-01-19T05:18:16.118Z,-3.07
2019-01-19T05:19:16.284Z,-3.16
2019-01-19T05:20:16.468Z,-3.28
2019-01-19T05:21:16.617Z,-3.25
2019-01-19T05:22:16.773Z,-3.27
2019-01-19T05:23:16.933Z,-3.28
2019-01-19T05:24:17.103Z,-3.28
2019-01-19T05:25:17.268Z,-3.27
2019-01-19T05:26:17.437Z,-3.15
2019-01-19T05:27:17.612Z,-3.13
2019-01-19T05:28:17.772Z,-3.09
2019-01-19T05:29:17.999Z,-3.12
2019-01-19T05:30:18.096Z,-3.17
2019-01-19T05:31:18.289Z,-3.07
2019-01-19T05:32:18.446Z,-3.16
2019-01-19T05:33:18.614Z,-3.20
2019-01-19T05:34:18.780Z,-3.15
2019-01-19T05:35:18.953Z,-3.16
2019-01-19T05:36:19.123Z,-3.27
2019-01-19T05:37:19.285Z,-3.31
2019-01-19T05:38:19.451Z,-3.22
2019-01-19T05:39:19.618Z,-3.28
2019-01-19T05:40:19.784Z,-3.17
2019-01-19T05:41:19.948Z,-3.15
2019-01-19T05:42:20.113Z,-3.19
2019-01-19T05:43:20.280Z,-3.19
2019-01-19T05:44:20.457Z,-3.19
2019-01-19T05:45:20.632Z,-3.07
2019-01-19T05:46:21.500Z,-3.09
2019-01-19T05:47:20.950Z,-3.02
2019-01-19T05:48:21.126Z,-3.09
2019-01-19T05:49:21.287Z,-3.07
2019-01-19T05:50:21.457Z,-2.99
2019-01-19T05:51:21.624Z,-2.97
2019-01-19T05:52:21.793Z,-2.94
2019-01-19T05:53:21.954Z,-2.95
2019-01-19T05:54:22.126Z,-3.04
2019-01-19T05:55:22.296Z,-2.97
2019-01-19T05:56:22.464Z,-2.94
2019-01-19T05:57:22.631Z,-2.95
2019-01-19T05:58:22.800Z,-2.97
2019-01-19T05:59:22.964Z,-2.86
2019-01-19T06:00:23.167Z,-2.92
2019-01-19T06:01:23.301Z,-2.94
2019-01-19T06:02:23.474Z,-2.86
2019-01-19T06:03:23.646Z,-2.84
2019-01-19T06:04:23.816Z,-2.92
2019-01-19T06:05:23.988Z,-2.97
2019-01-19T06:06:24.150Z,-2.92
2019-01-19T06:07:24.322Z,-2.92
2019-01-19T06:08:24.492Z,-2.97
2019-01-19T06:09:24.659Z,-2.98
2019-01-19T06:10:24.832Z,-2.99
2019-01-19T06:11:25.013Z,-3.06
2019-01-19T06:12:25.158Z,-3.10
2019-01-19T06:13:25.338Z,-3.13
2019-01-19T06:14:25.495Z,-3.16
2019-01-19T06:15:25.675Z,-3.17
2019-01-19T06:16:25.827Z,-3.19
2019-01-19T06:17:25.994Z,-3.31
2019-01-19T06:18:26.162Z,-3.38
2019-01-19T06:19:26.350Z,-3.38
2019-01-19T06:20:26.495Z,-3.34
2019-01-19T06:21:26.657Z,-3.23
2019-01-19T06:22:26.825Z,-3.30
2019-01-19T06:23:26.991Z,-3.20
2019-01-19T06:24:27.155Z,-3.25
2019-01-19T06:25:27.326Z,-3.35
2019-01-19T06:26:27.497Z,-3.28
2019-01-19T06:27:27.661Z,-3.33
2019-01-19T06:28:27.826Z,-3.49
2019-01-19T06:29:27.996Z,-3.46
2019-01-19T06:30:28.163Z,-3.45
2019-01-19T06:31:28.328Z,-3.51
2019-01-19T06:32:28.500Z,-3.45
2019-01-19T06:33:28.662Z,-3.51
2019-01-19T06:34:28.829Z,-3.49
2019-01-19T06:35:28.997Z,-3.46
2019-01-19T06:36:29.169Z,-3.52
2019-01-19T06:37:29.334Z,-3.45
2019-01-19T06:38:29.501Z,-3.52
2019-01-19T06:39:29.666Z,-3.46
2019-01-19T06:40:29.833Z,-3.41
2019-01-19T06:41:29.999Z,-3.45
2019-01-19T06:42:30.165Z,-3.61
2019-01-19T06:43:30.330Z,-3.54
2019-01-19T06:44:30.496Z,-3.64
2019-01-19T06:45:30.679Z,-3.59
2019-01-19T06:46:30.842Z,-3.59
2019-01-19T06:47:31.003Z,-3.58
2019-01-19T06:48:31.169Z,-3.56
2019-01-19T06:49:31.343Z,-3.55
2019-01-19T06:50:31.512Z,-3.49
2019-01-19T06:51:31.684Z,-3.54
2019-01-19T06:52:31.848Z,-3.44
2019-01-19T06:53:32.021Z,-3.48
2019-01-19T06:54:32.183Z,-3.51
2019-01-19T06:55:32.352Z,-3.44
2019-01-19T06:56:32.533Z,-3.61
2019-01-19T06:57:32.693Z,-3.59
2019-01-19T06:58:32.852Z,-3.66
2019-01-19T06:59:33.029Z,-3.66
2019-01-19T07:00:33.182Z,-3.77
2019-01-19T07:01:33.350Z,-3.83
2019-01-19T07:02:33.517Z,-3.82
2019-01-19T07:03:33.686Z,-3.89
2019-01-19T07:04:33.852Z,-3.95
2019-01-19T07:05:34.024Z,-3.88
2019-01-19T07:06:34.183Z,-3.85
2019-01-19T07:07:34.356Z,-3.93
2019-01-19T07:08:34.522Z,-3.88
2019-01-19T07:09:34.690Z,-3.82
2019-01-19T07:10:34.859Z,-3.77
2019-01-19T07:11:35.025Z,-3.78
2019-01-19T07:12:35.193Z,-3.69
2019-01-19T07:13:35.364Z,-3.66
2019-01-19T07:14:35.524Z,-3.59
2019-01-19T07:15:35.692Z,-3.59
2019-01-19T07:16:35.862Z,-3.63
2019-01-19T07:17:36.044Z,-3.61
2019-01-19T07:18:36.197Z,-3.74
2019-01-19T07:19:36.370Z,-3.91
2019-01-19T07:20:36.539Z,-4.06
2019-01-19T07:21:36.696Z,-4.03
2019-01-19T07:22:36.883Z,-4.12
2019-01-19T07:24:37.204Z,-4.02
2019-01-19T07:25:37.382Z,-4.06
2019-01-19T07:26:37.535Z,-3.93
2019-01-19T07:27:37.713Z,-3.98
2019-01-19T07:28:37.882Z,-3.95
2019-01-19T07:29:38.055Z,-3.93
2019-01-19T07:30:38.222Z,-3.95
2019-01-19T07:31:38.395Z,-3.78
2019-01-19T07:32:38.547Z,-3.78
2019-01-19T07:33:38.712Z,-3.70
2019-01-19T07:34:38.889Z,-3.67
2019-01-19T07:35:39.045Z,-3.58
2019-01-19T07:36:39.210Z,-3.59
2019-01-19T07:37:39.374Z,-3.55
2019-01-19T07:38:39.546Z,-3.48
2019-01-19T07:39:39.710Z,-3.46
2019-01-19T07:40:39.879Z,-3.51
2019-01-19T07:41:40.037Z,-3.46
2019-01-19T07:42:40.204Z,-3.45
2019-01-19T07:43:40.362Z,-3.44
2019-01-19T07:44:40.530Z,-3.37
2019-01-19T07:45:40.696Z,-3.35
2019-01-19T07:46:40.874Z,-3.27
2019-01-19T07:47:41.024Z,-3.25
2019-01-19T07:48:41.191Z,-3.27
2019-01-19T07:49:41.357Z,-3.34
2019-01-19T07:50:41.526Z,-3.16
2019-01-19T07:51:41.694Z,-3.10
2019-01-19T07:52:41.863Z,-3.22
2019-01-19T07:53:42.029Z,-3.37
2019-01-19T07:54:42.203Z,-3.37
2019-01-19T07:55:42.361Z,-3.40
2019-01-19T07:56:42.531Z,-3.37
2019-01-19T07:57:42.691Z,-3.54
2019-01-19T07:58:42.872Z,-3.45
2019-01-19T07:59:43.033Z,-3.38
2019-01-19T08:00:43.207Z,-3.41
2019-01-19T08:01:43.379Z,-3.41
2019-01-19T08:02:43.541Z,-3.52
2019-01-19T08:03:43.723Z,-3.52
2019-01-19T08:04:43.897Z,-3.58
2019-01-19T08:05:44.058Z,-3.52
2019-01-19T08:06:44.225Z,-3.31
2019-01-19T08:07:44.403Z,-3.38
2019-01-19T08:08:44.556Z,-3.40
2019-01-19T08:09:44.724Z,-3.34
2019-01-19T08:10:44.904Z,-3.45
2019-01-19T08:11:45.061Z,-3.37
2019-01-19T08:12:45.226Z,-3.23
2019-01-19T08:13:45.398Z,-3.20
2019-01-19T08:14:45.565Z,-3.16
2019-01-19T08:15:45.727Z,-3.07
2019-01-19T08:16:45.899Z,-3.13
2019-01-19T08:17:46.217Z,-3.30
2019-01-19T08:18:46.225Z,-3.17
2019-01-19T08:19:46.462Z,-3.20
2019-01-19T08:20:46.503Z,-3.15
2019-01-19T08:21:46.678Z,-3.31
2019-01-19T08:22:46.841Z,-3.13
2019-01-19T08:23:47.002Z,-3.06
2019-01-19T08:24:47.170Z,-2.99
2019-01-19T08:25:47.340Z,-2.98
2019-01-19T08:26:47.508Z,-2.98
2019-01-19T08:27:47.680Z,-2.86
2019-01-19T08:28:47.845Z,-2.95
2019-01-19T08:29:48.021Z,-2.76
2019-01-19T08:30:48.166Z,-2.77
2019-01-19T08:31:48.341Z,-2.71
2019-01-19T08:32:48.516Z,-2.81
2019-01-19T08:33:48.699Z,-2.95
2019-01-19T08:34:48.860Z,-2.99
2019-01-19T08:35:49.025Z,-2.99
2019-01-19T08:36:49.186Z,-3.10
2019-01-19T08:37:49.379Z,-3.15
2019-01-19T08:38:49.526Z,-3.10
2019-01-19T08:39:49.698Z,-3.01
2019-01-19T08:40:49.856Z,-2.98
2019-01-19T08:41:50.032Z,-3.07
2019-01-19T08:42:50.192Z,-2.97
2019-01-19T08:43:50.362Z,-2.86
2019-01-19T08:44:50.525Z,-3.09
2019-01-19T08:45:50.689Z,-2.97
2019-01-19T08:46:50.857Z,-2.81
2019-01-19T08:47:51.031Z,-2.89
2019-01-19T08:48:51.195Z,-2.77
2019-01-19T08:49:51.361Z,-2.77
2019-01-19T08:50:51.541Z,-2.77
2019-01-19T08:51:51.713Z,-2.77
2019-01-19T08:52:51.861Z,-2.81
2019-01-19T08:53:52.031Z,-2.84
2019-01-19T08:54:52.193Z,-2.66
2019-01-19T08:55:52.357Z,-2.78
2019-01-19T08:56:52.531Z,-2.89
2019-01-19T08:57:52.696Z,-3.13
2019-01-19T08:58:52.870Z,-3.09
2019-01-19T08:59:53.034Z,-2.92
2019-01-19T09:00:53.205Z,-2.89
2019-01-19T09:01:53.378Z,-2.97
2019-01-19T09:02:53.539Z,-2.88
2019-01-19T09:03:53.718Z,-2.92
2019-01-19T09:04:53.880Z,-2.78
2019-01-19T09:05:54.040Z,-2.66
2019-01-19T09:06:54.205Z,-2.73
2019-01-19T09:07:54.409Z,-2.69
2019-01-19T09:08:54.581Z,-2.45
2019-01-19T09:09:54.756Z,-2.41
2019-01-19T09:10:54.919Z,-2.58
2019-01-19T09:11:55.090Z,-2.48
2019-01-19T09:12:55.274Z,-2.45
2019-01-19T09:13:55.433Z,-2.48
2019-01-19T09:14:55.602Z,-2.44
2019-01-19T09:15:55.771Z,-2.42
2019-01-19T09:16:55.943Z,-2.65
2019-01-19T09:17:56.124Z,-2.52
2019-01-19T09:18:56.293Z,-2.42
2019-01-19T09:19:56.444Z,-2.42
2019-01-19T09:20:56.635Z,-2.47
2019-01-19T09:21:56.794Z,-2.71
2019-01-19T09:22:56.995Z,-2.81
2019-01-19T09:23:58.101Z,-2.76
2019-01-19T09:24:57.326Z,-2.81
2019-01-19T09:25:57.491Z,-2.74
2019-01-19T09:26:57.657Z,-2.76
2019-01-19T09:27:57.825Z,-2.91
2019-01-19T09:28:57.993Z,-2.92
2019-01-19T09:29:58.161Z,-2.97
2019-01-19T09:30:58.329Z,-2.77
2019-01-19T09:31:58.515Z,-2.76
2019-01-19T09:32:58.679Z,-2.73
2019-01-19T09:33:58.843Z,-2.65
2019-01-19T09:34:59.010Z,-2.59
2019-01-19T09:35:59.174Z,-2.47
2019-01-19T09:36:59.335Z,-2.37
2019-01-19T09:37:59.502Z,-2.59
2019-01-19T09:38:59.672Z,-2.47
2019-01-19T09:39:59.842Z,-2.45
2019-01-19T09:41:00.001Z,-2.12
2019-01-19T09:42:00.193Z,-2.15
2019-01-19T09:43:00.356Z,-2.02
2019-01-19T09:44:00.542Z,-2.07
2019-01-19T09:45:00.701Z,-1.95
2019-01-19T09:46:00.885Z,-1.92
2019-01-19T09:47:01.052Z,-1.90
2019-01-19T09:48:01.234Z,-1.83
2019-01-19T09:49:01.417Z,-1.80
2019-01-19T09:50:01.553Z,-1.69
2019-01-19T09:51:01.728Z,-1.54
2019-01-19T09:52:01.900Z,-1.41
2019-01-19T09:53:02.097Z,-1.44
2019-01-19T09:54:02.227Z,-1.32
2019-01-19T09:55:02.398Z,-1.30
2019-01-19T09:56:02.567Z,-1.29
2019-01-19T09:57:02.733Z,-1.26
2019-01-19T09:58:02.900Z,-1.22
2019-01-19T09:59:03.069Z,-1.09
2019-01-19T10:00:03.239Z,-0.91
2019-01-19T10:01:03.421Z,-1.11
2019-01-19T10:02:03.582Z,-1.20
2019-01-19T10:03:03.748Z,-0.97
2019-01-19T10:04:03.915Z,-1.02
2019-01-19T10:05:04.094Z,-0.83
2019-01-19T10:06:04.253Z,-0.54
2019-01-19T10:07:05.168Z,-0.49
2019-01-19T10:08:04.573Z,-0.43
2019-01-19T10:09:05.692Z,-0.56
2019-01-19T10:10:04.906Z,-0.41
2019-01-19T10:11:05.081Z,-0.52
2019-01-19T10:12:05.238Z,-0.62
2019-01-19T10:13:05.419Z,-0.74
2019-01-19T10:14:05.585Z,-0.64
2019-01-19T10:15:05.752Z,-0.64
2019-01-19T10:16:05.924Z,-0.68
2019-01-19T10:17:06.086Z,-0.36
2019-01-19T10:18:06.271Z,-0.25
2019-01-19T10:19:06.429Z,-0.02
2019-01-19T10:20:06.596Z,-0.10
2019-01-19T10:21:06.764Z,-0.10
2019-01-19T10:22:06.933Z,0.04
2019-01-19T10:23:07.102Z,0.08
2019-01-19T10:24:07.270Z,0.10
2019-01-19T10:25:07.454Z,0.01
2019-01-19T10:26:07.617Z,-0.17
2019-01-19T10:27:07.782Z,-0.07
2019-01-19T10:28:07.987Z,0.23
2019-01-19T10:29:08.117Z,0.01
2019-01-19T10:30:08.295Z,0.07
2019-01-19T10:31:08.457Z,0.29
2019-01-19T10:32:08.632Z,0.16
2019-01-19T10:33:08.800Z,0.21
2019-01-19T10:34:08.975Z,0.34
2019-01-19T10:35:09.137Z,0.36
2019-01-19T10:36:09.307Z,0.49
2019-01-19T10:37:09.483Z,0.41
2019-01-19T10:38:09.651Z,0.39
2019-01-19T10:39:09.815Z,0.76
2019-01-19T10:40:09.984Z,0.88
2019-01-19T10:41:10.166Z,1.14
2019-01-19T10:42:10.323Z,1.42
2019-01-19T10:43:10.501Z,1.37
2019-01-19T10:44:10.662Z,1.52
2019-01-19T10:45:10.827Z,1.55
2019-01-19T10:46:10.994Z,1.74
2019-01-19T10:47:11.159Z,2.02
2019-01-19T10:48:11.329Z,2.10
2019-01-19T10:49:11.518Z,2.06
2019-01-19T10:50:11.684Z,1.88
2019-01-19T10:51:11.837Z,1.50
2019-01-19T10:52:12.017Z,1.56
2019-01-19T10:53:13.358Z,1.59
2019-01-19T10:54:12.346Z,1.41
2019-01-19T10:55:12.518Z,1.63
2019-01-19T10:56:12.698Z,1.70
2019-01-19T10:57:12.872Z,1.73
2019-01-19T10:58:13.040Z,1.53
2019-01-19T10:59:13.187Z,1.58
2019-01-19T11:00:13.371Z,1.24
2019-01-19T11:01:13.525Z,1.17
2019-01-19T11:02:13.699Z,1.44
2019-01-19T11:03:13.870Z,1.80
2019-01-19T11:04:14.051Z,2.04
2019-01-19T11:05:14.230Z,2.36
2019-01-19T11:06:14.393Z,2.53
2019-01-19T11:07:14.565Z,2.44
2019-01-19T11:08:14.736Z,2.06
2019-01-19T11:09:14.906Z,2.17
2019-01-19T11:10:15.079Z,1.92
2019-01-19T11:11:15.259Z,1.89
2019-01-19T11:12:15.420Z,2.10
2019-01-19T11:13:15.588Z,2.08
2019-01-19T11:14:15.756Z,2.18
2019-01-19T11:15:15.936Z,2.36
2019-01-19T11:16:16.101Z,2.67
2019-01-19T11:17:16.287Z,2.36
2019-01-19T11:18:16.456Z,2.53
2019-01-19T11:19:16.624Z,2.62
2019-01-19T11:20:16.798Z,3.00
2019-01-19T11:21:16.975Z,3.10
2019-01-19T11:22:17.465Z,3.56
2019-01-19T11:23:17.307Z,3.95
2019-01-19T11:24:17.471Z,3.98
2019-01-19T11:25:17.651Z,4.10
2019-01-19T11:26:17.834Z,3.94
2019-01-19T11:27:17.990Z,3.80
2019-01-19T11:28:18.163Z,4.05
2019-01-19T11:29:18.349Z,4.06
2019-01-19T11:30:18.520Z,3.74
2019-01-19T11:31:18.671Z,4.01
2019-01-19T11:32:18.838Z,4.20
2019-01-19T11:33:19.012Z,4.40
2019-01-19T11:34:19.196Z,4.42
2019-01-19T11:35:19.358Z,3.95
2019-01-19T11:36:19.515Z,4.35
2019-01-19T11:37:19.696Z,4.63
2019-01-19T11:38:20.330Z,4.70
2019-01-19T11:39:20.042Z,4.74
2019-01-19T11:40:20.226Z,4.93
2019-01-19T11:41:20.395Z,4.97
2019-01-19T11:42:20.591Z,5.14
2019-01-19T11:43:20.781Z,5.20
2019-01-19T11:44:21.000Z,4.80
2019-01-19T11:45:21.230Z,4.62
2019-01-19T11:46:21.354Z,4.71
2019-01-19T11:47:21.572Z,4.68
2019-01-19T11:48:21.690Z,5.00
2019-01-19T11:49:21.872Z,4.90
2019-01-19T11:50:22.842Z,5.17
2019-01-19T11:51:22.224Z,4.94
2019-01-19T11:52:22.395Z,4.75
2019-01-19T11:53:22.560Z,4.62
2019-01-19T11:54:22.731Z,4.75
2019-01-19T11:55:22.906Z,4.80
2019-01-19T11:56:23.084Z,4.89
2019-01-19T11:57:23.254Z,5.38
2019-01-19T11:58:23.428Z,5.87
2019-01-19T11:59:23.599Z,6.08
2019-01-19T12:00:23.779Z,6.59
2019-01-19T12:01:23.946Z,6.59
2019-01-19T12:02:24.120Z,6.70
2019-01-19T12:03:24.296Z,6.92
2019-01-19T12:04:24.465Z,7.15
2019-01-19T12:05:24.647Z,7.17
2019-01-19T12:06:24.817Z,6.99
2019-01-19T12:07:25.000Z,6.33
2019-01-19T12:08:25.169Z,6.17
2019-01-19T12:09:25.338Z,6.62
2019-01-19T12:10:25.525Z,6.89
2019-01-19T12:11:25.687Z,6.59
2019-01-19T12:12:25.865Z,6.82
2019-01-19T12:13:26.039Z,7.00
2019-01-19T12:14:26.245Z,7.43
2019-01-19T12:15:26.397Z,7.24
2019-01-19T12:16:26.570Z,7.50
2019-01-19T12:17:26.749Z,7.76
2019-01-19T12:18:26.928Z,7.05
2019-01-19T12:19:27.095Z,7.06
2019-01-19T12:20:27.277Z,6.46
2019-01-19T12:21:27.447Z,6.19
2019-01-19T12:22:27.628Z,6.11
2019-01-19T12:23:27.806Z,5.80
2019-01-19T12:24:27.983Z,6.02
2019-01-19T12:25:28.159Z,5.33
2019-01-19T12:26:28.335Z,5.65
2019-01-19T12:27:28.525Z,5.87
2019-01-19T12:28:28.686Z,6.05
2019-01-19T12:29:28.871Z,5.62
2019-01-19T12:30:29.038Z,6.96
2019-01-19T12:31:29.219Z,7.73
2019-01-19T12:32:29.391Z,8.28
2019-01-19T12:33:29.567Z,8.49
2019-01-19T12:34:29.742Z,8.53
2019-01-19T12:35:29.922Z,8.38
2019-01-19T12:36:30.100Z,8.61
2019-01-19T12:37:30.281Z,8.92
2019-01-19T12:38:30.459Z,9.22
2019-01-19T12:39:30.628Z,9.25
2019-01-19T12:40:30.806Z,9.83
2019-01-19T12:41:30.981Z,9.59
2019-01-19T12:42:31.163Z,8.97
2019-01-19T12:43:31.322Z,8.45
2019-01-19T12:44:31.521Z,9.26
2019-01-19T12:45:31.695Z,9.34
2019-01-19T12:46:31.873Z,9.74
2019-01-19T12:47:32.052Z,10.19
2019-01-19T12:48:32.236Z,9.82
2019-01-19T12:49:32.410Z,10.10
2019-01-19T12:50:32.589Z,9.91
2019-01-19T12:51:32.784Z,9.95
2019-01-19T12:52:32.953Z,9.43
2019-01-19T12:53:33.125Z,9.55
2019-01-19T12:54:33.311Z,9.80
2019-01-19T12:55:33.478Z,9.68
2019-01-19T12:56:33.658Z,9.32
2019-01-19T12:57:33.832Z,8.95
2019-01-19T12:58:34.013Z,8.89
2019-01-19T12:59:34.194Z,7.70
2019-01-19T13:00:34.374Z,8.05
2019-01-19T13:01:34.550Z,7.80
2019-01-19T13:02:34.737Z,7.36